Terminal Aerodrome Forecast
Issued by NWS Lubbock, TX

Home | Current Version | Previous Version | Text Only | Print | Product List | Glossary On
Versions: 1 2 3 4 5 6 7 8 9 10 11 12 13 14 15 16
000
FTUS44 KLUB 041725
TAFLBB
TAF
KLBB 041725Z 0418/0518 17015KT P6SM SCT050
     FM050600 19009KT P6SM FEW015 SCT150=

USA.gov is the U.S. government's official web portal to all federal, state and local government web resources and services.